sensor_id;sensor_type;location;lat;lon;timestamp;P1;durP1;ratioP1;P2;durP2;ratioP2
44212;SDS011;29882;46.356;17.798;2022-11-04T00:01:01;62.85;;;40.50;;
44212;SDS011;29882;46.356;17.798;2022-11-04T00:03:29;61.83;;;40.67;;
44212;SDS011;29882;46.356;17.798;2022-11-04T00:05:59;67.55;;;41.30;;
44212;SDS011;29882;46.356;17.798;2022-11-04T00:08:28;63.60;;;39.67;;
44212;SDS011;29882;46.356;17.798;2022-11-04T00:10:56;62.13;;;38.92;;
44212;SDS011;29882;46.356;17.798;2022-11-04T00:13:43;65.18;;;41.35;;
44212;SDS011;29882;46.356;17.798;2022-11-04T00:16:10;68.00;;;41.75;;
44212;SDS011;29882;46.356;17.798;2022-11-04T00:19:00;82.68;;;45.65;;
44212;SDS011;29882;46.356;17.798;2022-11-04T00:21:28;75.38;;;44.22;;
44212;SDS011;29882;46.356;17.798;2022-11-04T00:24:13;77.15;;;43.55;;
44212;SDS011;29882;46.356;17.798;2022-11-04T00:27:16;73.25;;;43.38;;
44212;SDS011;29882;46.356;17.798;2022-11-04T00:30:04;83.68;;;47.58;;
44212;SDS011;29882;46.356;17.798;2022-11-04T00:32:35;88.43;;;49.08;;
44212;SDS011;29882;46.356;17.798;2022-11-04T00:35:21;92.13;;;49.15;;
44212;SDS011;29882;46.356;17.798;2022-11-04T00:37:48;95.85;;;51.88;;
44212;SDS011;29882;46.356;17.798;2022-11-04T00:40:15;88.30;;;50.22;;
44212;SDS011;29882;46.356;17.798;2022-11-04T00:42:43;98.10;;;53.88;;
44212;SDS011;29882;46.356;17.798;2022-11-04T00:45:11;95.55;;;54.08;;
44212;SDS011;29882;46.356;17.798;2022-11-04T00:47:38;103.38;;;54.55;;
44212;SDS011;29882;46.356;17.798;2022-11-04T00:50:05;101.28;;;54.42;;
44212;SDS011;29882;46.356;17.798;2022-11-04T00:52:33;99.90;;;55.70;;
44212;SDS011;29882;46.356;17.798;2022-11-04T00:55:00;91.82;;;52.97;;
44212;SDS011;29882;46.356;17.798;2022-11-04T00:57:27;100.43;;;52.17;;
44212;SDS011;29882;46.356;17.798;2022-11-04T00:59:54;96.38;;;52.72;;
44212;SDS011;29882;46.356;17.798;2022-11-04T01:02:21;94.97;;;51.78;;
44212;SDS011;29882;46.356;17.798;2022-11-04T01:04:49;86.95;;;48.50;;
44212;SDS011;29882;46.356;17.798;2022-11-04T01:07:16;86.53;;;49.13;;
44212;SDS011;29882;46.356;17.798;2022-11-04T01:09:43;89.18;;;50.13;;
44212;SDS011;29882;46.356;17.798;2022-11-04T01:12:10;90.53;;;49.45;;
44212;SDS011;29882;46.356;17.798;2022-11-04T01:14:37;89.68;;;50.25;;
44212;SDS011;29882;46.356;17.798;2022-11-04T01:17:03;92.18;;;49.90;;
44212;SDS011;29882;46.356;17.798;2022-11-04T01:19:31;93.75;;;50.63;;
44212;SDS011;29882;46.356;17.798;2022-11-04T01:21:58;89.07;;;50.58;;
44212;SDS011;29882;46.356;17.798;2022-11-04T01:24:25;101.25;;;52.60;;
44212;SDS011;29882;46.356;17.798;2022-11-04T01:26:52;96.70;;;53.50;;
44212;SDS011;29882;46.356;17.798;2022-11-04T01:29:19;102.78;;;53.40;;
44212;SDS011;29882;46.356;17.798;2022-11-04T01:31:46;92.82;;;52.28;;
44212;SDS011;29882;46.356;17.798;2022-11-04T01:34:13;95.15;;;51.17;;
44212;SDS011;29882;46.356;17.798;2022-11-04T01:36:40;89.93;;;48.95;;
44212;SDS011;29882;46.356;17.798;2022-11-04T01:39:07;94.00;;;52.90;;
44212;SDS011;29882;46.356;17.798;2022-11-04T01:41:35;87.82;;;48.95;;
44212;SDS011;29882;46.356;17.798;2022-11-04T01:44:02;86.22;;;48.25;;
44212;SDS011;29882;46.356;17.798;2022-11-04T01:46:51;88.07;;;50.03;;
44212;SDS011;29882;46.356;17.798;2022-11-04T01:49:27;85.38;;;47.60;;
44212;SDS011;29882;46.356;17.798;2022-11-04T01:52:04;78.10;;;45.60;;
44212;SDS011;29882;46.356;17.798;2022-11-04T01:54:35;74.85;;;44.05;;
44212;SDS011;29882;46.356;17.798;2022-11-04T01:57:04;71.70;;;42.22;;
44212;SDS011;29882;46.356;17.798;2022-11-04T01:59:36;83.05;;;45.35;;
44212;SDS011;29882;46.356;17.798;2022-11-04T02:02:05;85.68;;;45.55;;
44212;SDS011;29882;46.356;17.798;2022-11-04T02:04:33;81.70;;;47.42;;
44212;SDS011;29882;46.356;17.798;2022-11-04T02:07:04;92.47;;;50.65;;
44212;SDS011;29882;46.356;17.798;2022-11-04T02:09:34;92.45;;;50.53;;
44212;SDS011;29882;46.356;17.798;2022-11-04T02:12:02;87.43;;;49.88;;
44212;SDS011;29882;46.356;17.798;2022-11-04T02:14:48;94.80;;;51.42;;
44212;SDS011;29882;46.356;17.798;2022-11-04T02:30:45;98.70;;;52.20;;
44212;SDS011;29882;46.356;17.798;2022-11-04T02:33:22;95.80;;;52.92;;
44212;SDS011;29882;46.356;17.798;2022-11-04T02:35:55;97.40;;;53.92;;
44212;SDS011;29882;46.356;17.798;2022-11-04T02:43:48;86.18;;;50.60;;
44212;SDS011;29882;46.356;17.798;2022-11-04T02:49:13;93.75;;;51.83;;
44212;SDS011;29882;46.356;17.798;2022-11-04T02:51:57;94.30;;;48.63;;
44212;SDS011;29882;46.356;17.798;2022-11-04T02:54:50;87.80;;;49.50;;
44212;SDS011;29882;46.356;17.798;2022-11-04T02:57:27;87.03;;;50.63;;
44212;SDS011;29882;46.356;17.798;2022-11-04T02:59:58;84.60;;;49.38;;
44212;SDS011;29882;46.356;17.798;2022-11-04T03:02:45;92.28;;;50.95;;
44212;SDS011;29882;46.356;17.798;2022-11-04T03:05:36;87.32;;;47.40;;
44212;SDS011;29882;46.356;17.798;2022-11-04T03:08:30;89.00;;;49.30;;
44212;SDS011;29882;46.356;17.798;2022-11-04T03:11:05;90.07;;;51.28;;
44212;SDS011;29882;46.356;17.798;2022-11-04T03:16:09;91.10;;;49.63;;
44212;SDS011;29882;46.356;17.798;2022-11-04T03:21:14;98.35;;;51.50;;
44212;SDS011;29882;46.356;17.798;2022-11-04T03:23:45;86.45;;;48.92;;
44212;SDS011;29882;46.356;17.798;2022-11-04T03:26:28;92.32;;;49.95;;
44212;SDS011;29882;46.356;17.798;2022-11-04T03:29:19;88.40;;;49.20;;
44212;SDS011;29882;46.356;17.798;2022-11-04T03:31:59;89.40;;;50.92;;
44212;SDS011;29882;46.356;17.798;2022-11-04T03:34:27;94.80;;;48.47;;
44212;SDS011;29882;46.356;17.798;2022-11-04T03:36:55;98.60;;;50.42;;
44212;SDS011;29882;46.356;17.798;2022-11-04T03:39:22;91.78;;;48.97;;
44212;SDS011;29882;46.356;17.798;2022-11-04T03:41:51;86.25;;;46.42;;
44212;SDS011;29882;46.356;17.798;2022-11-04T03:44:22;88.07;;;49.13;;
44212;SDS011;29882;46.356;17.798;2022-11-04T03:46:51;91.63;;;49.33;;
44212;SDS011;29882;46.356;17.798;2022-11-04T03:49:19;86.55;;;46.55;;
44212;SDS011;29882;46.356;17.798;2022-11-04T03:51:49;92.53;;;48.25;;
44212;SDS011;29882;46.356;17.798;2022-11-04T03:54:16;88.78;;;47.25;;
44212;SDS011;29882;46.356;17.798;2022-11-04T03:56:51;89.38;;;47.35;;
44212;SDS011;29882;46.356;17.798;2022-11-04T04:02:04;90.88;;;49.05;;
44212;SDS011;29882;46.356;17.798;2022-11-04T04:04:42;93.28;;;48.28;;
44212;SDS011;29882;46.356;17.798;2022-11-04T04:07:28;92.63;;;48.67;;
44212;SDS011;29882;46.356;17.798;2022-11-04T04:10:03;91.35;;;49.13;;
44212;SDS011;29882;46.356;17.798;2022-11-04T04:12:58;86.97;;;47.17;;
44212;SDS011;29882;46.356;17.798;2022-11-04T04:15:33;86.50;;;46.55;;
44212;SDS011;29882;46.356;17.798;2022-11-04T04:18:12;92.70;;;48.25;;
44212;SDS011;29882;46.356;17.798;2022-11-04T04:20:43;87.07;;;47.53;;
44212;SDS011;29882;46.356;17.798;2022-11-04T04:23:16;92.35;;;47.80;;
44212;SDS011;29882;46.356;17.798;2022-11-04T04:26:05;89.18;;;47.60;;
44212;SDS011;29882;46.356;17.798;2022-11-04T04:28:53;82.75;;;46.00;;
44212;SDS011;29882;46.356;17.798;2022-11-04T04:31:22;87.85;;;48.30;;
44212;SDS011;29882;46.356;17.798;2022-11-04T04:34:10;91.05;;;47.45;;
44212;SDS011;29882;46.356;17.798;2022-11-04T04:36:40;93.35;;;48.40;;
44212;SDS011;29882;46.356;17.798;2022-11-04T04:39:16;89.95;;;47.22;;
44212;SDS011;29882;46.356;17.798;2022-11-04T04:42:06;87.47;;;48.47;;
44212;SDS011;29882;46.356;17.798;2022-11-04T04:44:52;85.68;;;47.70;;
44212;SDS011;29882;46.356;17.798;2022-11-04T04:47:26;89.50;;;47.47;;
44212;SDS011;29882;46.356;17.798;2022-11-04T04:49:58;93.88;;;48.05;;
44212;SDS011;29882;46.356;17.798;2022-11-04T04:52:30;94.63;;;48.85;;
44212;SDS011;29882;46.356;17.798;2022-11-04T04:55:00;88.60;;;48.00;;
44212;SDS011;29882;46.356;17.798;2022-11-04T04:57:27;89.65;;;47.42;;
44212;SDS011;29882;46.356;17.798;2022-11-04T04:59:54;92.43;;;47.63;;
44212;SDS011;29882;46.356;17.798;2022-11-04T05:02:21;92.70;;;47.80;;
44212;SDS011;29882;46.356;17.798;2022-11-04T05:04:48;96.93;;;49.92;;
44212;SDS011;29882;46.356;17.798;2022-11-04T05:07:15;99.85;;;50.13;;
44212;SDS011;29882;46.356;17.798;2022-11-04T05:09:42;94.68;;;49.13;;
44212;SDS011;29882;46.356;17.798;2022-11-04T05:12:09;89.50;;;48.92;;
44212;SDS011;29882;46.356;17.798;2022-11-04T05:14:36;94.45;;;47.95;;
44212;SDS011;29882;46.356;17.798;2022-11-04T05:17:03;95.68;;;49.50;;
44212;SDS011;29882;46.356;17.798;2022-11-04T05:19:30;90.78;;;47.72;;
44212;SDS011;29882;46.356;17.798;2022-11-04T05:21:58;86.90;;;47.60;;
44212;SDS011;29882;46.356;17.798;2022-11-04T05:24:25;94.47;;;48.08;;
44212;SDS011;29882;46.356;17.798;2022-11-04T05:26:52;95.53;;;47.88;;
44212;SDS011;29882;46.356;17.798;2022-11-04T05:29:19;89.45;;;46.47;;
44212;SDS011;29882;46.356;17.798;2022-11-04T05:31:46;88.43;;;46.58;;
44212;SDS011;29882;46.356;17.798;2022-11-04T05:34:13;78.38;;;44.65;;
44212;SDS011;29882;46.356;17.798;2022-11-04T05:36:41;87.00;;;45.90;;
44212;SDS011;29882;46.356;17.798;2022-11-04T05:39:09;87.07;;;47.13;;
44212;SDS011;29882;46.356;17.798;2022-11-04T05:41:39;89.00;;;45.35;;
44212;SDS011;29882;46.356;17.798;2022-11-04T05:44:06;85.60;;;44.58;;
44212;SDS011;29882;46.356;17.798;2022-11-04T05:46:35;84.63;;;44.78;;
44212;SDS011;29882;46.356;17.798;2022-11-04T05:49:02;83.25;;;44.10;;
44212;SDS011;29882;46.356;17.798;2022-11-04T05:51:32;83.10;;;44.13;;
44212;SDS011;29882;46.356;17.798;2022-11-04T05:53:59;78.13;;;42.75;;
44212;SDS011;29882;46.356;17.798;2022-11-04T05:56:26;81.88;;;43.97;;
44212;SDS011;29882;46.356;17.798;2022-11-04T05:58:53;75.78;;;41.75;;
44212;SDS011;29882;46.356;17.798;2022-11-04T06:01:28;74.45;;;38.72;;
44212;SDS011;29882;46.356;17.798;2022-11-04T06:04:00;70.35;;;40.05;;
44212;SDS011;29882;46.356;17.798;2022-11-04T06:06:28;70.78;;;41.15;;
44212;SDS011;29882;46.356;17.798;2022-11-04T06:08:57;64.22;;;38.95;;
44212;SDS011;29882;46.356;17.798;2022-11-04T06:11:24;63.60;;;37.45;;
44212;SDS011;29882;46.356;17.798;2022-11-04T06:13:53;64.60;;;39.40;;
44212;SDS011;29882;46.356;17.798;2022-11-04T06:16:21;62.60;;;37.40;;
44212;SDS011;29882;46.356;17.798;2022-11-04T06:18:49;58.95;;;37.92;;
